sensor_id;sensor_type;location;lat;lon;timestamp;temperature;humidity
7646;DHT22;3864;48.180;14.178;2023-07-28T00:01:20;16.10;99.90
7646;DHT22;3864;48.180;14.178;2023-07-28T00:03:47;16.10;99.90
7646;DHT22;3864;48.180;14.178;2023-07-28T00:06:15;16.10;99.90
7646;DHT22;3864;48.180;14.178;2023-07-28T00:08:42;16.00;99.90
7646;DHT22;3864;48.180;14.178;2023-07-28T00:11:10;16.10;99.90
7646;DHT22;3864;48.180;14.178;2023-07-28T00:13:38;16.10;99.90
7646;DHT22;3864;48.180;14.178;2023-07-28T00:16:06;16.10;99.90
7646;DHT22;3864;48.180;14.178;2023-07-28T00:18:34;16.10;99.90
7646;DHT22;3864;48.180;14.178;2023-07-28T00:21:04;16.10;99.90
7646;DHT22;3864;48.180;14.178;2023-07-28T00:23:31;16.00;99.90
7646;DHT22;3864;48.180;14.178;2023-07-28T00:25:58;15.90;99.90
7646;DHT22;3864;48.180;14.178;2023-07-28T00:28:25;15.80;99.90
7646;DHT22;3864;48.180;14.178;2023-07-28T00:30:53;15.70;99.90
7646;DHT22;3864;48.180;14.178;2023-07-28T00:33:20;15.60;99.90
7646;DHT22;3864;48.180;14.178;2023-07-28T00:35:49;15.60;99.90
7646;DHT22;3864;48.180;14.178;2023-07-28T00:38:17;15.50;99.90
7646;DHT22;3864;48.180;14.178;2023-07-28T00:40:44;15.50;99.90
7646;DHT22;3864;48.180;14.178;2023-07-28T00:43:11;15.50;99.90
7646;DHT22;3864;48.180;14.178;2023-07-28T00:45:39;15.40;99.90
7646;DHT22;3864;48.180;14.178;2023-07-28T00:48:13;15.40;99.90
7646;DHT22;3864;48.180;14.178;2023-07-28T00:50:41;15.40;99.90
7646;DHT22;3864;48.180;14.178;2023-07-28T00:53:10;15.40;99.90
7646;DHT22;3864;48.180;14.178;2023-07-28T00:55:38;15.30;99.90
7646;DHT22;3864;48.180;14.178;2023-07-28T00:58:05;15.20;99.90
7646;DHT22;3864;48.180;14.178;2023-07-28T01:00:33;15.20;99.90
7646;DHT22;3864;48.180;14.178;2023-07-28T01:03:00;15.10;99.90
7646;DHT22;3864;48.180;14.178;2023-07-28T01:05:46;15.00;99.90
7646;DHT22;3864;48.180;14.178;2023-07-28T01:08:21;15.00;99.90
7646;DHT22;3864;48.180;14.178;2023-07-28T01:10:50;15.00;99.90
7646;DHT22;3864;48.180;14.178;2023-07-28T01:13:18;15.10;99.90
7646;DHT22;3864;48.180;14.178;2023-07-28T01:15:45;15.10;99.90
7646;DHT22;3864;48.180;14.178;2023-07-28T01:18:13;15.20;99.90
7646;DHT22;3864;48.180;14.178;2023-07-28T01:20:41;15.20;99.90
7646;DHT22;3864;48.180;14.178;2023-07-28T01:23:20;15.20;99.90
7646;DHT22;3864;48.180;14.178;2023-07-28T01:25:58;15.20;99.90
7646;DHT22;3864;48.180;14.178;2023-07-28T01:28:28;15.20;99.90
7646;DHT22;3864;48.180;14.178;2023-07-28T01:30:57;15.20;99.90
7646;DHT22;3864;48.180;14.178;2023-07-28T01:33:24;15.20;99.90
7646;DHT22;3864;48.180;14.178;2023-07-28T01:35:52;15.20;99.90
7646;DHT22;3864;48.180;14.178;2023-07-28T01:38:19;15.20;99.90
7646;DHT22;3864;48.180;14.178;2023-07-28T01:40:46;15.10;99.90
7646;DHT22;3864;48.180;14.178;2023-07-28T01:43:14;15.00;99.90
7646;DHT22;3864;48.180;14.178;2023-07-28T01:45:43;15.00;99.90
7646;DHT22;3864;48.180;14.178;2023-07-28T01:48:09;14.90;99.90
7646;DHT22;3864;48.180;14.178;2023-07-28T01:50:37;14.80;99.90
7646;DHT22;3864;48.180;14.178;2023-07-28T01:53:06;14.70;99.90
7646;DHT22;3864;48.180;14.178;2023-07-28T01:55:34;14.60;99.90
7646;DHT22;3864;48.180;14.178;2023-07-28T01:58:02;14.50;99.90
7646;DHT22;3864;48.180;14.178;2023-07-28T02:00:29;14.40;99.90
7646;DHT22;3864;48.180;14.178;2023-07-28T02:02:58;14.40;99.90
7646;DHT22;3864;48.180;14.178;2023-07-28T02:05:27;14.30;99.90
7646;DHT22;3864;48.180;14.178;2023-07-28T02:07:55;14.30;99.90
7646;DHT22;3864;48.180;14.178;2023-07-28T02:10:23;14.30;99.90
7646;DHT22;3864;48.180;14.178;2023-07-28T02:12:50;14.40;99.90
7646;DHT22;3864;48.180;14.178;2023-07-28T02:15:18;14.40;99.90
7646;DHT22;3864;48.180;14.178;2023-07-28T02:17:45;14.50;99.90
7646;DHT22;3864;48.180;14.178;2023-07-28T02:20:14;14.60;99.90
7646;DHT22;3864;48.180;14.178;2023-07-28T02:22:42;14.60;99.90
7646;DHT22;3864;48.180;14.178;2023-07-28T02:25:09;14.70;99.90
7646;DHT22;3864;48.180;14.178;2023-07-28T02:27:37;14.80;99.90
7646;DHT22;3864;48.180;14.178;2023-07-28T02:30:05;14.70;99.90
7646;DHT22;3864;48.180;14.178;2023-07-28T02:32:33;14.80;99.90
7646;DHT22;3864;48.180;14.178;2023-07-28T02:35:00;14.80;99.90
7646;DHT22;3864;48.180;14.178;2023-07-28T02:37:29;14.80;99.90
7646;DHT22;3864;48.180;14.178;2023-07-28T02:39:56;14.70;99.90
7646;DHT22;3864;48.180;14.178;2023-07-28T02:42:23;14.60;99.90
7646;DHT22;3864;48.180;14.178;2023-07-28T02:44:51;14.60;99.90
7646;DHT22;3864;48.180;14.178;2023-07-28T02:47:19;14.60;99.90
7646;DHT22;3864;48.180;14.178;2023-07-28T02:49:46;14.50;99.90
7646;DHT22;3864;48.180;14.178;2023-07-28T02:52:13;14.50;99.90
7646;DHT22;3864;48.180;14.178;2023-07-28T02:54:42;14.40;99.90
7646;DHT22;3864;48.180;14.178;2023-07-28T02:57:09;14.40;99.90
7646;DHT22;3864;48.180;14.178;2023-07-28T02:59:37;14.40;99.90
7646;DHT22;3864;48.180;14.178;2023-07-28T03:02:04;14.50;99.90
7646;DHT22;3864;48.180;14.178;2023-07-28T03:04:32;14.60;99.90
7646;DHT22;3864;48.180;14.178;2023-07-28T03:06:59;14.70;99.90
7646;DHT22;3864;48.180;14.178;2023-07-28T03:09:26;14.70;99.90
7646;DHT22;3864;48.180;14.178;2023-07-28T03:11:55;14.50;99.90
7646;DHT22;3864;48.180;14.178;2023-07-28T03:14:22;14.40;99.90
7646;DHT22;3864;48.180;14.178;2023-07-28T03:16:50;14.30;99.90
7646;DHT22;3864;48.180;14.178;2023-07-28T03:19:17;14.10;99.90
7646;DHT22;3864;48.180;14.178;2023-07-28T03:21:44;13.90;99.90
7646;DHT22;3864;48.180;14.178;2023-07-28T03:24:11;13.80;99.90
7646;DHT22;3864;48.180;14.178;2023-07-28T03:26:39;13.70;99.90
7646;DHT22;3864;48.180;14.178;2023-07-28T03:29:07;13.50;99.90
7646;DHT22;3864;48.180;14.178;2023-07-28T03:31:35;13.50;99.90
7646;DHT22;3864;48.180;14.178;2023-07-28T03:34:02;13.40;99.90
7646;DHT22;3864;48.180;14.178;2023-07-28T03:36:29;13.40;99.90
7646;DHT22;3864;48.180;14.178;2023-07-28T03:38:57;13.30;99.90
7646;DHT22;3864;48.180;14.178;2023-07-28T03:41:24;13.30;99.90
7646;DHT22;3864;48.180;14.178;2023-07-28T03:43:51;13.30;99.90
7646;DHT22;3864;48.180;14.178;2023-07-28T03:46:20;13.40;99.90
7646;DHT22;3864;48.180;14.178;2023-07-28T03:48:47;13.30;99.90
7646;DHT22;3864;48.180;14.178;2023-07-28T03:51:14;13.40;99.90
7646;DHT22;3864;48.180;14.178;2023-07-28T03:53:42;13.40;99.90
7646;DHT22;3864;48.180;14.178;2023-07-28T03:56:09;13.50;99.90
7646;DHT22;3864;48.180;14.178;2023-07-28T03:58:36;13.40;99.90
7646;DHT22;3864;48.180;14.178;2023-07-28T04:01:04;13.30;99.90
7646;DHT22;3864;48.180;14.178;2023-07-28T04:03:34;13.30;99.90
7646;DHT22;3864;48.180;14.178;2023-07-28T04:06:05;13.30;99.90
7646;DHT22;3864;48.180;14.178;2023-07-28T04:08:33;13.20;99.90
7646;DHT22;3864;48.180;14.178;2023-07-28T04:11:01;13.20;99.90
7646;DHT22;3864;48.180;14.178;2023-07-28T04:13:28;13.20;99.90
7646;DHT22;3864;48.180;14.178;2023-07-28T04:15:56;13.10;99.90
7646;DHT22;3864;48.180;14.178;2023-07-28T04:18:23;13.10;99.90
7646;DHT22;3864;48.180;14.178;2023-07-28T04:20:52;13.20;99.90
7646;DHT22;3864;48.180;14.178;2023-07-28T04:23:20;13.20;99.90
7646;DHT22;3864;48.180;14.178;2023-07-28T04:25:47;13.20;99.90
7646;DHT22;3864;48.180;14.178;2023-07-28T04:28:14;13.30;99.90
7646;DHT22;3864;48.180;14.178;2023-07-28T04:30:42;13.40;99.90
7646;DHT22;3864;48.180;14.178;2023-07-28T04:33:09;13.50;99.90
7646;DHT22;3864;48.180;14.178;2023-07-28T04:35:36;13.70;99.90
7646;DHT22;3864;48.180;14.178;2023-07-28T04:38:05;13.80;99.90
7646;DHT22;3864;48.180;14.178;2023-07-28T04:40:32;13.90;99.90
7646;DHT22;3864;48.180;14.178;2023-07-28T04:42:59;13.90;99.90
7646;DHT22;3864;48.180;14.178;2023-07-28T04:45:27;14.00;99.90
7646;DHT22;3864;48.180;14.178;2023-07-28T04:47:54;14.00;99.90
7646;DHT22;3864;48.180;14.178;2023-07-28T04:50:21;14.00;99.90
7646;DHT22;3864;48.180;14.178;2023-07-28T04:52:48;14.10;99.90
7646;DHT22;3864;48.180;14.178;2023-07-28T04:55:17;14.10;99.90
7646;DHT22;3864;48.180;14.178;2023-07-28T04:57:45;14.10;99.90
7646;DHT22;3864;48.180;14.178;2023-07-28T05:00:13;14.10;99.90
7646;DHT22;3864;48.180;14.178;2023-07-28T05:02:40;14.20;99.90
7646;DHT22;3864;48.180;14.178;2023-07-28T05:05:08;14.30;99.90
7646;DHT22;3864;48.180;14.178;2023-07-28T05:07:35;14.30;99.90
7646;DHT22;3864;48.180;14.178;2023-07-28T05:10:02;14.40;99.90
7646;DHT22;3864;48.180;14.178;2023-07-28T05:12:31;14.50;99.90
7646;DHT22;3864;48.180;14.178;2023-07-28T05:14:59;14.50;99.90
7646;DHT22;3864;48.180;14.178;2023-07-28T05:17:26;14.50;99.90
7646;DHT22;3864;48.180;14.178;2023-07-28T05:19:53;14.60;99.90
7646;DHT22;3864;48.180;14.178;2023-07-28T05:22:21;14.60;99.90
7646;DHT22;3864;48.180;14.178;2023-07-28T05:24:48;14.60;99.90
7646;DHT22;3864;48.180;14.178;2023-07-28T05:27:15;14.70;99.90
7646;DHT22;3864;48.180;14.178;2023-07-28T05:29:44;14.80;99.90
7646;DHT22;3864;48.180;14.178;2023-07-28T05:32:11;14.80;99.90
7646;DHT22;3864;48.180;14.178;2023-07-28T05:34:41;14.90;99.90
7646;DHT22;3864;48.180;14.178;2023-07-28T05:37:09;14.90;99.90
7646;DHT22;3864;48.180;14.178;2023-07-28T05:39:36;15.00;99.90
7646;DHT22;3864;48.180;14.178;2023-07-28T05:42:03;15.30;99.90
7646;DHT22;3864;48.180;14.178;2023-07-28T05:44:31;16.30;99.90
7646;DHT22;3864;48.180;14.178;2023-07-28T05:47:00;18.80;99.90
7646;DHT22;3864;48.180;14.178;2023-07-28T05:49:27;21.60;99.90
7646;DHT22;3864;48.180;14.178;2023-07-28T05:51:54;23.50;99.90
7646;DHT22;3864;48.180;14.178;2023-07-28T05:54:22;25.20;99.90
7646;DHT22;3864;48.180;14.178;2023-07-28T05:56:49;26.20;99.90
7646;DHT22;3864;48.180;14.178;2023-07-28T05:59:16;26.40;99.90
7646;DHT22;3864;48.180;14.178;2023-07-28T06:01:45;26.40;99.90
7646;DHT22;3864;48.180;14.178;2023-07-28T06:04:13;26.90;99.90
7646;DHT22;3864;48.180;14.178;2023-07-28T06:06:41;27.20;99.90
7646;DHT22;3864;48.180;14.178;2023-07-28T06:09:08;27.60;99.90
7646;DHT22;3864;48.180;14.178;2023-07-28T06:11:35;27.50;99.90
7646;DHT22;3864;48.180;14.178;2023-07-28T06:14:02;28.10;99.90
7646;DHT22;3864;48.180;14.178;2023-07-28T06:16:29;27.70;99.90
7646;DHT22;3864;48.180;14.178;2023-07-28T06:18:57;28.20;99.90
7646;DHT22;3864;48.180;14.178;2023-07-28T06:21:26;28.90;99.90
7646;DHT22;3864;48.180;14.178;2023-07-28T06:23:52;28.10;99.90
7646;DHT22;3864;48.180;14.178;2023-07-28T06:26:20;28.30;99.90
7646;DHT22;3864;48.180;14.178;2023-07-28T06:28:47;27.60;99.90
7646;DHT22;3864;48.180;14.178;2023-07-28T06:31:14;26.20;99.90
7646;DHT22;3864;48.180;14.178;2023-07-28T06:33:41;25.90;99.90
7646;DHT22;3864;48.180;14.178;2023-07-28T06:36:09;26.60;99.90
7646;DHT22;3864;48.180;14.178;2023-07-28T06:38:38;27.70;99.90
7646;DHT22;3864;48.180;14.178;2023-07-28T06:41:05;28.20;99.90
7646;DHT22;3864;48.180;14.178;2023-07-28T06:43:32;28.60;99.90
7646;DHT22;3864;48.180;14.178;2023-07-28T06:46:00;28.90;99.90
7646;DHT22;3864;48.180;14.178;2023-07-28T06:48:27;29.80;99.90
7646;DHT22;3864;48.180;14.178;2023-07-28T06:50:54;30.50;99.90
7646;DHT22;3864;48.180;14.178;2023-07-28T06:53:22;30.60;99.90
7646;DHT22;3864;48.180;14.178;2023-07-28T06:55:50;31.30;99.90
7646;DHT22;3864;48.180;14.178;2023-07-28T06:58:18;31.80;99.90
7646;DHT22;3864;48.180;14.178;2023-07-28T07:00:45;32.30;99.90
7646;DHT22;3864;48.180;14.178;2023-07-28T07:03:13;32.30;99.90
7646;DHT22;3864;48.180;14.178;2023-07-28T07:05:41;32.10;99.90
7646;DHT22;3864;48.180;14.178;2023-07-28T07:08:09;32.50;99.90
7646;DHT22;3864;48.180;14.178;2023-07-28T07:10:36;32.40;99.90
7646;DHT22;3864;48.180;14.178;2023-07-28T07:13:05;32.40;99.90
7646;DHT22;3864;48.180;14.178;2023-07-28T07:15:34;32.00;99.90
7646;DHT22;3864;48.180;14.178;2023-07-28T07:18:01;31.30;99.90
7646;DHT22;3864;48.180;14.178;2023-07-28T07:20:29;30.50;99.90
7646;DHT22;3864;48.180;14.178;2023-07-28T07:22:56;30.40;99.90
7646;DHT22;3864;48.180;14.178;2023-07-28T07:25:23;31.20;99.90
7646;DHT22;3864;48.180;14.178;2023-07-28T07:27:50;30.50;99.90
7646;DHT22;3864;48.180;14.178;2023-07-28T07:30:19;30.10;99.90
7646;DHT22;3864;48.180;14.178;2023-07-28T07:32:46;29.60;99.90
7646;DHT22;3864;48.180;14.178;2023-07-28T07:35:14;29.10;99.90
7646;DHT22;3864;48.180;14.178;2023-07-28T07:37:41;29.80;99.90
7646;DHT22;3864;48.180;14.178;2023-07-28T07:40:09;28.80;99.90
7646;DHT22;3864;48.180;14.178;2023-07-28T07:42:45;27.90;99.90
7646;DHT22;3864;48.180;14.178;2023-07-28T07:45:13;27.00;99.90
7646;DHT22;3864;48.180;14.178;2023-07-28T07:47:43;25.90;99.90
7646;DHT22;3864;48.180;14.178;2023-07-28T07:50:10;25.10;99.90
7646;DHT22;3864;48.180;14.178;2023-07-28T07:52:39;25.50;99.90
7646;DHT22;3864;48.180;14.178;2023-07-28T07:55:08;25.80;99.90
7646;DHT22;3864;48.180;14.178;2023-07-28T07:57:36;26.00;99.90
7646;DHT22;3864;48.180;14.178;2023-07-28T08:00:05;25.70;99.90
7646;DHT22;3864;48.180;14.178;2023-07-28T08:02:32;25.30;99.90
7646;DHT22;3864;48.180;14.178;2023-07-28T08:05:01;25.00;99.90
7646;DHT22;3864;48.180;14.178;2023-07-28T08:07:29;24.80;99.90
7646;DHT22;3864;48.180;14.178;2023-07-28T08:09:57;24.50;99.90
7646;DHT22;3864;48.180;14.178;2023-07-28T08:12:24;24.20;99.90
7646;DHT22;3864;48.180;14.178;2023-07-28T08:14:51;23.80;99.90
7646;DHT22;3864;48.180;14.178;2023-07-28T08:17:19;23.60;99.90
7646;DHT22;3864;48.180;14.178;2023-07-28T08:19:46;23.70;99.90
7646;DHT22;3864;48.180;14.178;2023-07-28T08:22:15;23.60;99.90
7646;DHT22;3864;48.180;14.178;2023-07-28T08:24:42;24.20;99.90
7646;DHT22;3864;48.180;14.178;2023-07-28T08:27:09;24.60;99.90
7646;DHT22;3864;48.180;14.178;2023-07-28T08:29:36;24.70;99.90
7646;DHT22;3864;48.180;14.178;2023-07-28T08:32:04;24.70;99.90
7646;DHT22;3864;48.180;14.178;2023-07-28T08:34:32;24.40;99.90
7646;DHT22;3864;48.180;14.178;2023-07-28T08:36:59;24.30;99.90
7646;DHT22;3864;48.180;14.178;2023-07-28T08:39:28;24.20;99.90
7646;DHT22;3864;48.180;14.178;2023-07-28T08:41:58;24.10;99.90
7646;DHT22;3864;48.180;14.178;2023-07-28T08:44:27;23.90;99.90
7646;DHT22;3864;48.180;14.178;2023-07-28T08:46:56;23.70;99.90
7646;DHT22;3864;48.180;14.178;2023-07-28T08:49:24;23.60;99.90
7646;DHT22;3864;48.180;14.178;2023-07-28T08:51:52;23.70;99.90
7646;DHT22;3864;48.180;14.178;2023-07-28T08:54:24;24.10;99.90
7646;DHT22;3864;48.180;14.178;2023-07-28T08:56:53;24.50;99.90
7646;DHT22;3864;48.180;14.178;2023-07-28T08:59:24;24.50;99.90
7646;DHT22;3864;48.180;14.178;2023-07-28T09:01:53;24.30;99.90
7646;DHT22;3864;48.180;14.178;2023-07-28T09:04:21;24.30;99.90
7646;DHT22;3864;48.180;14.178;2023-07-28T09:06:49;24.40;99.90
7646;DHT22;3864;48.180;14.178;2023-07-28T09:09:21;24.30;99.90
7646;DHT22;3864;48.180;14.178;2023-07-28T09:11:50;24.20;99.90
7646;DHT22;3864;48.180;14.178;2023-07-28T09:14:20;24.00;99.90
7646;DHT22;3864;48.180;14.178;2023-07-28T09:16:49;23.60;99.90
7646;DHT22;3864;48.180;14.178;2023-07-28T09:19:16;23.60;99.90
7646;DHT22;3864;48.180;14.178;2023-07-28T09:21:44;23.80;99.90
7646;DHT22;3864;48.180;14.178;2023-07-28T09:24:13;24.70;99.90
7646;DHT22;3864;48.180;14.178;2023-07-28T09:26:44;25.10;99.90
7646;DHT22;3864;48.180;14.178;2023-07-28T09:29:16;25.30;99.90
7646;DHT22;3864;48.180;14.178;2023-07-28T09:31:46;26.00;99.90
7646;DHT22;3864;48.180;14.178;2023-07-28T09:34:23;26.30;99.90
7646;DHT22;3864;48.180;14.178;2023-07-28T09:36:52;26.50;99.90
7646;DHT22;3864;48.180;14.178;2023-07-28T09:39:21;26.50;99.90
7646;DHT22;3864;48.180;14.178;2023-07-28T09:41:48;26.70;99.90
7646;DHT22;3864;48.180;14.178;2023-07-28T09:44:16;26.80;99.90
7646;DHT22;3864;48.180;14.178;2023-07-28T09:46:50;26.80;99.90
7646;DHT22;3864;48.180;14.178;2023-07-28T09:49:27;26.70;99.90
7646;DHT22;3864;48.180;14.178;2023-07-28T09:51:59;26.70;99.90
7646;DHT22;3864;48.180;14.178;2023-07-28T09:54:27;26.40;99.90
7646;DHT22;3864;48.180;14.178;2023-07-28T09:56:56;27.00;99.90
7646;DHT22;3864;48.180;14.178;2023-07-28T09:59:28;27.90;99.90
7646;DHT22;3864;48.180;14.178;2023-07-28T10:01:58;28.70;99.90
7646;DHT22;3864;48.180;14.178;2023-07-28T10:04:27;29.30;99.90
7646;DHT22;3864;48.180;14.178;2023-07-28T10:06:55;29.50;99.90
7646;DHT22;3864;48.180;14.178;2023-07-28T10:09:23;29.30;99.90
7646;DHT22;3864;48.180;14.178;2023-07-28T10:11:51;29.90;99.90
7646;DHT22;3864;48.180;14.178;2023-07-28T10:14:28;30.30;99.90
7646;DHT22;3864;48.180;14.178;2023-07-28T10:16:58;30.10;99.90
7646;DHT22;3864;48.180;14.178;2023-07-28T10:19:27;30.30;99.90
7646;DHT22;3864;48.180;14.178;2023-07-28T10:22:01;28.80;99.90
7646;DHT22;3864;48.180;14.178;2023-07-28T10:24:51;29.20;99.90
7646;DHT22;3864;48.180;14.178;2023-07-28T10:27:34;29.70;99.90
7646;DHT22;3864;48.180;14.178;2023-07-28T10:30:03;30.20;99.90
7646;DHT22;3864;48.180;14.178;2023-07-28T10:32:39;30.60;99.90
7646;DHT22;3864;48.180;14.178;2023-07-28T10:35:08;30.30;99.90
7646;DHT22;3864;48.180;14.178;2023-07-28T10:37:36;29.20;99.90
7646;DHT22;3864;48.180;14.178;2023-07-28T10:40:22;28.90;99.90
7646;DHT22;3864;48.180;14.178;2023-07-28T10:42:51;29.60;99.90
7646;DHT22;3864;48.180;14.178;2023-07-28T10:45:19;28.90;99.90
7646;DHT22;3864;48.180;14.178;2023-07-28T10:47:48;28.80;99.90
7646;DHT22;3864;48.180;14.178;2023-07-28T10:50:16;28.30;99.90
7646;DHT22;3864;48.180;14.178;2023-07-28T10:52:44;28.50;99.90
7646;DHT22;3864;48.180;14.178;2023-07-28T10:55:13;28.20;99.90
7646;DHT22;3864;48.180;14.178;2023-07-28T10:57:42;28.10;99.90
7646;DHT22;3864;48.180;14.178;2023-07-28T11:00:10;28.20;99.90
7646;DHT22;3864;48.180;14.178;2023-07-28T11:02:41;28.20;99.90
7646;DHT22;3864;48.180;14.178;2023-07-28T11:05:13;28.20;99.90
7646;DHT22;3864;48.180;14.178;2023-07-28T11:07:41;28.10;99.90
7646;DHT22;3864;48.180;14.178;2023-07-28T11:10:09;28.00;99.90
7646;DHT22;3864;48.180;14.178;2023-07-28T11:12:42;28.30;99.90
7646;DHT22;3864;48.180;14.178;2023-07-28T11:15:10;28.90;99.90
7646;DHT22;3864;48.180;14.178;2023-07-28T11:17:38;29.50;99.90
7646;DHT22;3864;48.180;14.178;2023-07-28T11:20:16;28.50;99.90
7646;DHT22;3864;48.180;14.178;2023-07-28T11:22:43;28.80;99.90
7646;DHT22;3864;48.180;14.178;2023-07-28T11:25:11;28.70;99.90
7646;DHT22;3864;48.180;14.178;2023-07-28T11:27:40;28.30;99.90
7646;DHT22;3864;48.180;14.178;2023-07-28T11:30:08;28.20;99.90
7646;DHT22;3864;48.180;14.178;2023-07-28T11:32:37;27.80;99.90
7646;DHT22;3864;48.180;14.178;2023-07-28T11:35:05;27.50;99.90
7646;DHT22;3864;48.180;14.178;2023-07-28T11:37:37;27.40;99.90
7646;DHT22;3864;48.180;14.178;2023-07-28T11:40:07;27.50;99.90
7646;DHT22;3864;48.180;14.178;2023-07-28T11:42:37;27.50;99.90
7646;DHT22;3864;48.180;14.178;2023-07-28T11:45:06;27.70;99.90
7646;DHT22;3864;48.180;14.178;2023-07-28T11:47:35;27.60;99.90
7646;DHT22;3864;48.180;14.178;2023-07-28T11:50:03;26.70;99.90
7646;DHT22;3864;48.180;14.178;2023-07-28T11:52:31;27.20;99.90
7646;DHT22;3864;48.180;14.178;2023-07-28T11:55:00;26.90;99.90
7646;DHT22;3864;48.180;14.178;2023-07-28T11:57:29;27.40;99.90
7646;DHT22;3864;48.180;14.178;2023-07-28T11:59:58;27.50;99.90
7646;DHT22;3864;48.180;14.178;2023-07-28T12:02:26;27.40;99.90
7646;DHT22;3864;48.180;14.178;2023-07-28T12:04:53;27.20;99.90
7646;DHT22;3864;48.180;14.178;2023-07-28T12:07:28;27.40;99.90
7646;DHT22;3864;48.180;14.178;2023-07-28T12:09:56;27.40;99.90
7646;DHT22;3864;48.180;14.178;2023-07-28T12:12:28;27.30;99.90
7646;DHT22;3864;48.180;14.178;2023-07-28T12:14:56;27.20;99.90
7646;DHT22;3864;48.180;14.178;2023-07-28T12:17:28;27.50;99.90
7646;DHT22;3864;48.180;14.178;2023-07-28T12:19:57;27.10;99.90
7646;DHT22;3864;48.180;14.178;2023-07-28T12:22:25;27.20;99.90
7646;DHT22;3864;48.180;14.178;2023-07-28T12:24:52;27.20;99.90
7646;DHT22;3864;48.180;14.178;2023-07-28T12:27:20;27.20;99.90
7646;DHT22;3864;48.180;14.178;2023-07-28T12:29:50;27.40;99.90
7646;DHT22;3864;48.180;14.178;2023-07-28T12:32:18;27.40;99.90
7646;DHT22;3864;48.180;14.178;2023-07-28T12:34:45;27.50;99.90
7646;DHT22;3864;48.180;14.178;2023-07-28T12:37:12;27.80;99.90
7646;DHT22;3864;48.180;14.178;2023-07-28T12:39:40;27.80;99.90
7646;DHT22;3864;48.180;14.178;2023-07-28T12:42:07;27.50;99.90
7646;DHT22;3864;48.180;14.178;2023-07-28T12:44:35;27.30;99.90
7646;DHT22;3864;48.180;14.178;2023-07-28T12:47:05;27.20;99.90
7646;DHT22;3864;48.180;14.178;2023-07-28T12:49:32;27.10;99.90
7646;DHT22;3864;48.180;14.178;2023-07-28T12:52:04;27.10;99.90
7646;DHT22;3864;48.180;14.178;2023-07-28T12:54:32;27.10;99.90
7646;DHT22;3864;48.180;14.178;2023-07-28T12:57:00;27.00;99.90
7646;DHT22;3864;48.180;14.178;2023-07-28T12:59:28;27.00;99.90
7646;DHT22;3864;48.180;14.178;2023-07-28T13:01:55;27.30;99.90
7646;DHT22;3864;48.180;14.178;2023-07-28T13:04:24;26.90;99.90
7646;DHT22;3864;48.180;14.178;2023-07-28T13:06:52;26.80;99.90
7646;DHT22;3864;48.180;14.178;2023-07-28T13:09:20;26.70;99.90
7646;DHT22;3864;48.180;14.178;2023-07-28T13:11:47;26.90;99.90
7646;DHT22;3864;48.180;14.178;2023-07-28T13:14:14;27.10;99.90
7646;DHT22;3864;48.180;14.178;2023-07-28T13:16:42;27.20;99.90
7646;DHT22;3864;48.180;14.178;2023-07-28T13:19:10;27.30;99.90
7646;DHT22;3864;48.180;14.178;2023-07-28T13:21:38;27.70;99.90
7646;DHT22;3864;48.180;14.178;2023-07-28T13:24:06;28.00;99.90
7646;DHT22;3864;48.180;14.178;2023-07-28T13:26:34;28.00;99.90
7646;DHT22;3864;48.180;14.178;2023-07-28T13:29:01;28.00;99.90
7646;DHT22;3864;48.180;14.178;2023-07-28T13:31:32;28.00;99.90
7646;DHT22;3864;48.180;14.178;2023-07-28T13:34:00;28.60;99.90
7646;DHT22;3864;48.180;14.178;2023-07-28T13:36:28;28.40;99.90
7646;DHT22;3864;48.180;14.178;2023-07-28T13:38:56;28.80;99.90
7646;DHT22;3864;48.180;14.178;2023-07-28T13:41:24;28.70;99.90
7646;DHT22;3864;48.180;14.178;2023-07-28T13:43:51;28.60;99.90
7646;DHT22;3864;48.180;14.178;2023-07-28T13:46:18;28.50;99.90
7646;DHT22;3864;48.180;14.178;2023-07-28T13:48:46;28.10;99.90
7646;DHT22;3864;48.180;14.178;2023-07-28T13:51:13;27.50;99.90
7646;DHT22;3864;48.180;14.178;2023-07-28T13:53:40;27.20;99.90
7646;DHT22;3864;48.180;14.178;2023-07-28T13:56:09;26.70;99.90
7646;DHT22;3864;48.180;14.178;2023-07-28T13:58:36;26.70;99.90
7646;DHT22;3864;48.180;14.178;2023-07-28T14:01:04;26.80;99.90
7646;DHT22;3864;48.180;14.178;2023-07-28T14:03:32;26.80;99.90
7646;DHT22;3864;48.180;14.178;2023-07-28T14:05:59;27.20;99.90
7646;DHT22;3864;48.180;14.178;2023-07-28T14:08:26;27.70;99.90
7646;DHT22;3864;48.180;14.178;2023-07-28T14:10:53;28.10;99.90
7646;DHT22;3864;48.180;14.178;2023-07-28T14:13:22;28.20;99.90
7646;DHT22;3864;48.180;14.178;2023-07-28T14:15:50;28.00;99.90
7646;DHT22;3864;48.180;14.178;2023-07-28T14:18:17;27.70;99.90
7646;DHT22;3864;48.180;14.178;2023-07-28T14:20:44;27.30;99.90
7646;DHT22;3864;48.180;14.178;2023-07-28T14:23:22;26.60;99.90
7646;DHT22;3864;48.180;14.178;2023-07-28T14:25:50;26.10;99.90
7646;DHT22;3864;48.180;14.178;2023-07-28T14:28:18;25.80;99.90
7646;DHT22;3864;48.180;14.178;2023-07-28T14:30:49;25.60;99.90
7646;DHT22;3864;48.180;14.178;2023-07-28T14:33:18;25.10;99.90
7646;DHT22;3864;48.180;14.178;2023-07-28T14:35:47;24.70;99.90
7646;DHT22;3864;48.180;14.178;2023-07-28T14:38:14;24.70;99.90
7646;DHT22;3864;48.180;14.178;2023-07-28T14:40:43;24.40;99.90
7646;DHT22;3864;48.180;14.178;2023-07-28T14:43:14;24.20;99.90
7646;DHT22;3864;48.180;14.178;2023-07-28T14:45:42;24.10;99.90
7646;DHT22;3864;48.180;14.178;2023-07-28T14:48:12;23.80;99.90
7646;DHT22;3864;48.180;14.178;2023-07-28T14:50:39;23.80;99.90
7646;DHT22;3864;48.180;14.178;2023-07-28T14:53:28;23.60;99.90
7646;DHT22;3864;48.180;14.178;2023-07-28T14:55:56;23.70;99.90
7646;DHT22;3864;48.180;14.178;2023-07-28T14:58:24;23.70;99.90
7646;DHT22;3864;48.180;14.178;2023-07-28T15:00:51;23.80;99.90
7646;DHT22;3864;48.180;14.178;2023-07-28T15:03:20;23.70;99.90
7646;DHT22;3864;48.180;14.178;2023-07-28T15:05:48;23.60;99.90
7646;DHT22;3864;48.180;14.178;2023-07-28T15:08:15;23.50;99.90
7646;DHT22;3864;48.180;14.178;2023-07-28T15:10:42;23.70;99.90
7646;DHT22;3864;48.180;14.178;2023-07-28T15:13:09;23.70;99.90
7646;DHT22;3864;48.180;14.178;2023-07-28T15:15:37;23.70;99.90
7646;DHT22;3864;48.180;14.178;2023-07-28T15:18:04;24.00;99.90
7646;DHT22;3864;48.180;14.178;2023-07-28T15:20:33;24.30;99.90
7646;DHT22;3864;48.180;14.178;2023-07-28T15:23:01;24.50;99.90
7646;DHT22;3864;48.180;14.178;2023-07-28T15:25:28;24.40;99.90
7646;DHT22;3864;48.180;14.178;2023-07-28T15:27:55;24.20;99.90
7646;DHT22;3864;48.180;14.178;2023-07-28T15:30:23;24.20;99.90
7646;DHT22;3864;48.180;14.178;2023-07-28T15:32:50;24.10;99.90
7646;DHT22;3864;48.180;14.178;2023-07-28T15:35:18;23.90;99.90
7646;DHT22;3864;48.180;14.178;2023-07-28T15:37:46;23.60;99.90
7646;DHT22;3864;48.180;14.178;2023-07-28T15:40:14;23.60;99.90
7646;DHT22;3864;48.180;14.178;2023-07-28T15:42:41;23.60;99.90
7646;DHT22;3864;48.180;14.178;2023-07-28T15:45:09;23.50;99.90
7646;DHT22;3864;48.180;14.178;2023-07-28T15:47:36;23.60;99.90
7646;DHT22;3864;48.180;14.178;2023-07-28T15:50:04;23.70;99.90
7646;DHT22;3864;48.180;14.178;2023-07-28T15:52:32;23.90;99.90